Terminal Aerodrome Forecast
Issued by NWS Shreveport, LA

Home | Current Version | Previous Version | Text Only | Print | Product List | Glossary On
Versions: 1 2 3 4 5 6 7 8 9 10 11 12 13 14
000
FTUS44 KSHV 282300
TAFELD
TAF
KELD 282330Z 2900/2924 16006KT P6SM SCT250
      TEMPO 2900/2902 16012G18KT
     FM291100 22006KT P6SM BKN100
     FM291800 31009KT P6SM BKN250=

USA.gov is the U.S. government's official web portal to all federal, state and local government web resources and services.